Time;durP1;ratioP1;P1;durP2;ratioP2;P2;SDS_P1;SDS_P2;PMS_P1;PMS_P2;Temp;Humidity;BMP_temperature;BMP_pressure;BME280_temperature;BME280_humidity;BME280_pressure;Samples;Min_cycle;Max_cycle;Signal;HPM_P1;HPM_P2
2020/12/08 00:00:57;;;;;;;27.13;12.27;;;4.30;99.90;;;;;;4191649;28;20485;-61
2020/12/08 00:02:58;;;;;;;26.97;12.73;;;4.30;99.90;;;;;;4193101;28;20939;-61
2020/12/08 00:05:00;;;;;;;27.00;12.23;;;4.30;99.90;;;;;;4190042;28;20464;-61
2020/12/08 00:07:03;;;;;;;23.90;11.73;;;4.30;99.90;;;;;;4192012;28;20468;-60
2020/12/08 00:09:06;;;;;;;23.17;11.07;;;4.30;99.90;;;;;;4189952;28;20504;-60
2020/12/08 00:11:12;;;;;;;25.03;12.20;;;4.30;99.90;;;;;;4191079;28;20463;-60
2020/12/08 00:13:13;;;;;;;23.23;11.53;;;4.30;99.90;;;;;;4192226;28;20502;-60
2020/12/08 00:15:15;;;;;;;27.10;12.93;;;4.30;99.90;;;;;;4191316;28;20492;-61
2020/12/08 00:17:18;;;;;;;23.13;11.37;;;4.20;99.90;;;;;;4192149;28;20475;-60
2020/12/08 00:19:30;;;;;;;21.43;11.03;;;4.20;99.90;;;;;;4188845;28;20483;-60
2020/12/08 00:21:32;;;;;;;23.73;11.50;;;4.20;99.90;;;;;;4192567;28;20471;-60
2020/12/08 00:23:33;;;;;;;24.03;11.53;;;4.20;99.90;;;;;;4189569;28;20477;-60
2020/12/08 00:25:35;;;;;;;22.20;11.40;;;4.20;99.90;;;;;;4190716;28;21142;-60
2020/12/08 00:27:37;;;;;;;22.80;10.90;;;4.20;99.90;;;;;;4192055;28;20463;-60
2020/12/08 00:29:39;;;;;;;24.20;11.00;;;4.20;99.90;;;;;;4190942;28;20480;-60
2020/12/08 00:31:40;;;;;;;20.37;10.60;;;4.20;99.90;;;;;;4193091;28;20525;-61
2020/12/08 00:33:43;;;;;;;22.33;10.60;;;4.20;99.90;;;;;;4190217;28;20488;-60
2020/12/08 00:35:44;;;;;;;18.67;9.80;;;4.20;99.90;;;;;;4187703;28;20492;-60
2020/12/08 00:37:46;;;;;;;22.27;10.33;;;4.20;99.90;;;;;;4188385;28;20467;-61
2020/12/08 00:39:47;;;;;;;21.63;10.50;;;4.20;99.90;;;;;;4189873;28;20473;-61
2020/12/08 00:41:49;;;;;;;20.40;10.40;;;4.20;99.90;;;;;;4191343;28;20489;-61
2020/12/08 00:43:51;;;;;;;23.93;10.70;;;4.20;99.90;;;;;;4188972;28;20790;-61
2020/12/08 00:45:52;;;;;;;22.40;11.00;;;4.20;99.90;;;;;;4191227;28;20467;-60
2020/12/08 00:47:54;;;;;;;20.83;10.43;;;4.10;99.90;;;;;;4188946;28;20499;-61
2020/12/08 00:49:56;;;;;;;22.53;10.97;;;4.10;99.90;;;;;;4192232;28;20466;-61
2020/12/08 00:51:58;;;;;;;20.07;9.90;;;4.10;99.90;;;;;;4190589;28;20472;-61
2020/12/08 00:54:01;;;;;;;20.00;9.37;;;4.10;99.90;;;;;;4190327;28;20803;-61
2020/12/08 00:56:08;;;;;;;21.17;11.10;;;4.10;99.90;;;;;;4191367;28;20521;-60
2020/12/08 00:58:09;;;;;;;20.90;10.40;;;4.10;99.90;;;;;;4189653;28;21018;-61
2020/12/08 01:00:11;;;;;;;17.80;9.50;;;4.10;99.90;;;;;;4188203;28;20471;-61
2020/12/08 01:02:14;;;;;;;20.10;10.00;;;4.10;99.90;;;;;;4190827;28;20922;-60
2020/12/08 01:04:16;;;;;;;20.23;9.97;;;4.10;99.90;;;;;;4191137;28;20461;-60
2020/12/08 01:06:18;;;;;;;20.17;9.97;;;4.10;99.90;;;;;;4189532;28;20468;-61
2020/12/08 01:08:32;;;;;;;22.43;10.37;;;4.10;99.90;;;;;;4189613;28;20926;-61
2020/12/08 01:10:34;;;;;;;20.30;10.27;;;4.10;99.90;;;;;;4189505;28;20465;-61
2020/12/08 01:12:37;;;;;;;21.43;10.20;;;4.00;99.90;;;;;;4187526;28;20464;-61
2020/12/08 01:14:38;;;;;;;19.80;10.00;;;4.00;99.90;;;;;;4187842;28;20487;-62
2020/12/08 01:16:40;;;;;;;18.97;9.60;;;4.00;99.90;;;;;;4189911;28;20469;-61
2020/12/08 01:18:41;;;;;;;20.13;10.27;;;4.00;99.90;;;;;;4189826;28;20463;-61
2020/12/08 01:20:43;;;;;;;22.07;10.57;;;4.10;99.90;;;;;;4190917;28;20480;-61
2020/12/08 01:22:45;;;;;;;22.27;10.63;;;4.00;99.90;;;;;;4189161;28;20478;-61
2020/12/08 01:24:46;;;;;;;24.37;11.40;;;4.10;99.90;;;;;;4187529;28;20468;-61
2020/12/08 01:26:47;;;;;;;21.50;11.13;;;4.00;99.90;;;;;;4191741;28;20476;-61
2020/12/08 01:28:49;;;;;;;22.70;11.30;;;4.00;99.90;;;;;;4190815;28;20466;-61
2020/12/08 01:30:50;;;;;;;21.77;11.37;;;4.00;99.90;;;;;;4191733;28;20494;-62
2020/12/08 01:32:52;;;;;;;22.57;10.77;;;4.00;99.90;;;;;;4189785;28;21503;-61
2020/12/08 01:34:53;;;;;;;21.77;11.10;;;4.00;99.90;;;;;;4189641;28;20501;-61
2020/12/08 01:36:54;;;;;;;21.70;10.67;;;3.90;99.90;;;;;;4190521;28;20463;-61
2020/12/08 01:38:57;;;;;;;24.50;12.03;;;3.90;99.90;;;;;;4189852;28;20462;-61
2020/12/08 01:40:58;;;;;;;25.40;12.00;;;3.90;99.90;;;;;;4190051;28;21065;-60
2020/12/08 01:43:00;;;;;;;23.70;11.83;;;3.90;99.90;;;;;;4190503;28;20465;-60
2020/12/08 01:45:01;;;;;;;20.43;10.60;;;3.80;99.90;;;;;;4189152;28;20475;-61
2020/12/08 01:47:04;;;;;;;22.97;11.40;;;3.80;99.90;;;;;;4189025;28;21170;-61
2020/12/08 01:49:05;;;;;;;23.77;12.23;;;3.80;99.90;;;;;;4189501;28;20493;-60
2020/12/08 01:51:07;;;;;;;21.90;12.03;;;3.70;99.90;;;;;;4190546;28;20467;-60
2020/12/08 01:53:10;;;;;;;22.37;12.07;;;3.70;99.90;;;;;;4188176;28;20480;-60
2020/12/08 01:55:14;;;;;;;23.97;12.13;;;3.70;99.90;;;;;;4188845;28;20557;-60
2020/12/08 01:57:15;;;;;;;28.30;13.20;;;3.70;99.90;;;;;;4188926;28;20498;-60
2020/12/08 01:59:17;;;;;;;24.17;12.17;;;3.70;99.90;;;;;;4189940;28;20468;-61
2020/12/08 02:01:18;;;;;;;27.03;12.73;;;3.70;99.90;;;;;;4188046;28;20961;-60
2020/12/08 02:03:20;;;;;;;23.47;12.30;;;3.70;99.90;;;;;;4189086;28;20474;-60
2020/12/08 02:05:21;;;;;;;23.93;12.10;;;3.70;99.90;;;;;;4189677;28;20471;-60
2020/12/08 02:07:23;;;;;;;26.30;12.60;;;3.70;99.90;;;;;;4189718;28;20476;-61
2020/12/08 02:09:24;;;;;;;27.60;12.27;;;3.70;99.90;;;;;;4190014;28;20892;-60
2020/12/08 02:11:26;;;;;;;25.93;13.07;;;3.70;99.90;;;;;;4189920;28;20469;-60
2020/12/08 02:13:28;;;;;;;25.10;12.70;;;3.70;99.90;;;;;;4187894;28;20484;-60
2020/12/08 02:15:30;;;;;;;25.80;12.37;;;3.70;99.90;;;;;;4187276;28;20495;-60
2020/12/08 02:17:31;;;;;;;29.03;13.53;;;3.60;99.90;;;;;;4189055;28;20477;-60
2020/12/08 02:19:33;;;;;;;23.80;12.13;;;3.60;99.90;;;;;;4189753;28;20992;-60
2020/12/08 02:21:35;;;;;;;24.80;12.57;;;3.60;99.90;;;;;;4188510;28;20471;-59
2020/12/08 02:23:36;;;;;;;26.73;12.63;;;3.60;99.90;;;;;;4189942;28;20468;-60
2020/12/08 02:25:41;;;;;;;23.60;12.13;;;3.60;99.90;;;;;;4187934;28;20462;-60
2020/12/08 02:27:43;;;;;;;28.63;14.00;;;3.60;99.90;;;;;;4189766;28;21106;-60
2020/12/08 02:29:44;;;;;;;24.93;12.27;;;3.60;99.90;;;;;;4191689;28;20485;-60
2020/12/08 02:31:45;;;;;;;27.83;13.67;;;3.60;99.90;;;;;;4190010;28;20473;-60
2020/12/08 02:33:47;;;;;;;27.63;13.53;;;3.60;99.90;;;;;;4190219;28;20592;-60
2020/12/08 02:35:48;;;;;;;24.20;12.10;;;3.60;99.90;;;;;;4191085;28;20495;-60
2020/12/08 02:37:51;;;;;;;24.73;12.30;;;3.60;99.90;;;;;;4189511;28;20466;-60
2020/12/08 02:39:52;;;;;;;25.27;12.57;;;3.60;99.90;;;;;;4190355;28;21012;-60
2020/12/08 02:41:55;;;;;;;25.17;13.07;;;3.60;99.90;;;;;;4189366;28;20470;-60
2020/12/08 02:43:57;;;;;;;24.57;12.33;;;3.60;99.90;;;;;;4190555;28;20501;-60
2020/12/08 02:46:00;;;;;;;25.37;12.23;;;3.60;99.90;;;;;;4187346;28;20494;-60
2020/12/08 02:48:01;;;;;;;26.97;12.53;;;3.60;99.90;;;;;;4187332;28;20966;-59
2020/12/08 02:50:03;;;;;;;26.30;13.20;;;3.60;99.90;;;;;;4189088;28;21223;-60
2020/12/08 02:52:04;;;;;;;25.13;12.27;;;3.60;99.90;;;;;;4191261;28;20774;-60
2020/12/08 02:54:06;;;;;;;25.43;13.00;;;3.60;99.90;;;;;;4188761;28;20945;-60
2020/12/08 02:56:08;;;;;;;25.43;12.43;;;3.60;99.90;;;;;;4187580;28;20475;-60
2020/12/08 02:58:09;;;;;;;26.87;13.70;;;3.60;99.90;;;;;;4188574;28;20520;-61
2020/12/08 03:00:10;;;;;;;29.77;13.27;;;3.60;99.90;;;;;;4190712;28;20464;-61
2020/12/08 03:02:12;;;;;;;25.07;12.77;;;3.60;99.90;;;;;;4189978;28;20468;-60
2020/12/08 03:04:13;;;;;;;24.77;12.50;;;3.60;99.90;;;;;;4189190;28;20479;-61
2020/12/08 03:06:14;;;;;;;25.57;12.83;;;3.60;99.90;;;;;;4191344;28;20459;-60
2020/12/08 03:08:16;;;;;;;28.67;13.40;;;3.60;99.90;;;;;;4190727;28;20468;-60
2020/12/08 03:10:19;;;;;;;28.47;13.30;;;3.60;99.90;;;;;;4191245;28;20503;-60
2020/12/08 03:12:20;;;;;;;27.90;13.23;;;3.60;99.90;;;;;;4192573;28;20468;-61
2020/12/08 03:14:21;;;;;;;25.93;12.20;;;3.60;99.90;;;;;;4190592;28;20597;-61
2020/12/08 03:16:23;;;;;;;27.83;13.17;;;3.60;99.90;;;;;;4193705;28;20472;-61
2020/12/08 03:18:24;;;;;;;24.93;12.37;;;3.60;99.90;;;;;;4192200;28;20483;-60
2020/12/08 03:20:26;;;;;;;26.47;13.13;;;3.60;99.90;;;;;;4192189;28;20478;-60
2020/12/08 03:22:27;;;;;;;24.80;12.40;;;3.60;99.90;;;;;;4193448;28;20460;-60
2020/12/08 03:24:28;;;;;;;26.37;13.33;;;3.60;99.90;;;;;;4191802;28;20478;-60
2020/12/08 03:26:31;;;;;;;26.73;13.53;;;3.60;99.90;;;;;;4192401;28;20474;-60
2020/12/08 03:28:32;;;;;;;27.57;14.00;;;3.60;99.90;;;;;;4191125;28;20495;-61
2020/12/08 03:30:34;;;;;;;27.97;13.67;;;3.60;99.90;;;;;;4192529;28;20471;-60
2020/12/08 03:32:35;;;;;;;26.77;13.00;;;3.60;99.90;;;;;;4192674;28;21034;-60
2020/12/08 03:34:36;;;;;;;23.73;12.27;;;3.60;99.90;;;;;;4190635;28;20483;-60
2020/12/08 03:36:38;;;;;;;23.10;12.10;;;3.60;99.90;;;;;;4191586;28;20467;-60
2020/12/08 03:38:41;;;;;;;23.30;12.60;;;3.60;99.90;;;;;;4191794;28;20478;-61
2020/12/08 03:40:44;;;;;;;24.33;12.33;;;3.50;99.90;;;;;;4190807;28;20948;-62
2020/12/08 03:42:46;;;;;;;23.67;11.67;;;3.50;99.90;;;;;;4192011;28;20959;-65
2020/12/08 03:44:48;;;;;;;21.03;11.43;;;3.50;99.90;;;;;;4190864;28;20469;-60
2020/12/08 03:46:49;;;;;;;24.10;12.47;;;3.40;99.90;;;;;;4191438;28;20475;-60
2020/12/08 03:48:52;;;;;;;24.17;11.80;;;3.40;99.90;;;;;;4192453;28;20467;-60
2020/12/08 03:50:53;;;;;;;24.97;12.67;;;3.40;99.90;;;;;;4192208;28;20474;-60
2020/12/08 03:52:56;;;;;;;23.83;11.93;;;3.40;99.90;;;;;;4193864;28;20466;-60
2020/12/08 03:54:58;;;;;;;25.30;11.90;;;3.40;99.90;;;;;;4191053;28;21149;-60
2020/12/08 03:56:59;;;;;;;20.63;10.83;;;3.40;99.90;;;;;;4192259;28;20479;-61
2020/12/08 03:59:01;;;;;;;24.30;11.80;;;3.40;99.90;;;;;;4191588;28;20476;-60
2020/12/08 04:01:03;;;;;;;19.43;10.43;;;3.40;99.90;;;;;;4190962;28;20474;-60
2020/12/08 04:03:04;;;;;;;23.67;12.47;;;3.40;99.90;;;;;;4193580;28;20482;-60
2020/12/08 04:05:06;;;;;;;21.87;11.50;;;3.40;99.90;;;;;;4190714;28;20473;-60
2020/12/08 04:07:07;;;;;;;21.70;11.00;;;3.40;99.90;;;;;;4190733;28;20467;-60
2020/12/08 04:09:09;;;;;;;22.17;10.97;;;3.30;99.90;;;;;;4190613;28;20475;-60
2020/12/08 04:11:10;;;;;;;22.10;10.83;;;3.40;99.90;;;;;;4190644;28;22355;-59
2020/12/08 04:13:12;;;;;;;22.30;11.33;;;3.30;99.90;;;;;;4192489;28;20498;-60
2020/12/08 04:15:14;;;;;;;19.37;10.23;;;3.30;99.90;;;;;;4190377;28;21250;-60
2020/12/08 04:17:18;;;;;;;20.47;10.43;;;3.30;99.90;;;;;;4188699;28;20487;-60
2020/12/08 04:19:19;;;;;;;21.27;10.40;;;3.30;99.90;;;;;;4191981;28;20468;-60
2020/12/08 04:21:22;;;;;;;18.30;9.73;;;3.30;99.90;;;;;;4190243;28;20474;-61
2020/12/08 04:23:23;;;;;;;19.50;9.67;;;3.30;99.90;;;;;;4191120;28;20483;-60
2020/12/08 04:25:24;;;;;;;21.17;10.30;;;3.30;99.90;;;;;;4189304;28;20476;-60
2020/12/08 04:27:26;;;;;;;19.17;9.63;;;3.20;99.90;;;;;;4191976;28;20462;-59
2020/12/08 04:29:27;;;;;;;19.37;9.33;;;3.20;99.90;;;;;;4190650;28;20479;-60
2020/12/08 04:31:30;;;;;;;19.03;9.93;;;3.20;99.90;;;;;;4189189;28;20473;-61
2020/12/08 04:33:31;;;;;;;19.17;9.73;;;3.20;99.90;;;;;;4190216;28;20471;-60
2020/12/08 04:35:32;;;;;;;19.23;9.93;;;3.20;99.90;;;;;;4189977;28;20492;-60
2020/12/08 04:37:34;;;;;;;17.73;9.53;;;3.20;99.90;;;;;;4189388;28;20557;-60
2020/12/08 04:39:35;;;;;;;20.83;9.47;;;3.20;99.90;;;;;;4191100;28;20471;-60
2020/12/08 04:41:37;;;;;;;20.57;9.33;;;3.20;99.90;;;;;;4191400;28;20988;-60
2020/12/08 04:43:39;;;;;;;18.83;9.87;;;3.20;99.90;;;;;;4189859;28;20474;-60
2020/12/08 04:45:41;;;;;;;20.13;10.23;;;3.20;99.90;;;;;;4192978;28;21190;-60
2020/12/08 04:47:45;;;;;;;17.30;9.33;;;3.20;99.90;;;;;;4189429;28;20624;-60
2020/12/08 04:49:48;;;;;;;17.53;9.47;;;3.20;99.90;;;;;;4188567;28;20474;-60
2020/12/08 04:51:49;;;;;;;18.53;10.07;;;3.20;99.90;;;;;;4191906;28;20537;-60
2020/12/08 04:53:53;;;;;;;17.80;9.13;;;3.20;99.90;;;;;;4190295;28;20474;-60
2020/12/08 04:55:54;;;;;;;19.60;9.20;;;3.10;99.90;;;;;;4191452;28;21294;-59
2020/12/08 04:57:56;;;;;;;18.73;9.47;;;3.20;99.90;;;;;;4190781;28;21104;-59
2020/12/08 05:00:02;;;;;;;19.10;9.40;;;3.10;99.90;;;;;;4190560;28;20479;-60
2020/12/08 05:02:03;;;;;;;19.10;9.37;;;3.10;99.90;;;;;;4190562;28;20495;-59
2020/12/08 05:04:06;;;;;;;18.57;9.13;;;3.10;99.90;;;;;;4190601;28;20502;-60
2020/12/08 05:06:15;;;;;;;19.10;9.53;;;3.10;99.90;;;;;;4191456;28;20479;-60
2020/12/08 05:08:17;;;;;;;15.50;8.50;;;3.10;99.90;;;;;;4189958;28;20464;-60
2020/12/08 05:10:29;;;;;;;17.30;8.83;;;3.10;99.90;;;;;;4189762;28;20576;-60
2020/12/08 05:12:30;;;;;;;19.57;9.77;;;3.20;99.90;;;;;;4190086;28;20470;-60
2020/12/08 05:14:41;;;;;;;18.80;9.37;;;3.20;99.90;;;;;;4188858;28;20507;-60
2020/12/08 05:16:42;;;;;;;20.33;9.73;;;3.10;99.90;;;;;;4190324;28;21291;-60
2020/12/08 05:18:44;;;;;;;19.43;9.73;;;3.10;99.90;;;;;;4188459;28;20479;-60
2020/12/08 05:20:46;;;;;;;19.17;9.57;;;3.10;99.90;;;;;;4189729;28;21039;-60
2020/12/08 05:22:55;;;;;;;19.77;9.67;;;3.10;99.90;;;;;;4189743;28;20505;-60
2020/12/08 05:25:08;;;;;;;18.27;9.00;;;3.10;99.90;;;;;;4187952;28;20533;-59
2020/12/08 05:27:09;;;;;;;19.50;9.47;;;3.10;99.90;;;;;;4190901;28;20496;-60
2020/12/08 05:29:10;;;;;;;18.13;9.33;;;3.10;99.90;;;;;;4187652;28;20482;-59
2020/12/08 05:31:12;;;;;;;19.30;9.67;;;3.10;99.90;;;;;;4187228;28;20482;-60
2020/12/08 05:33:16;;;;;;;17.07;9.10;;;3.10;99.90;;;;;;4188367;28;20475;-59
2020/12/08 05:35:20;;;;;;;19.50;9.50;;;3.10;99.90;;;;;;4188993;28;20491;-60
2020/12/08 05:37:22;;;;;;;21.17;9.43;;;3.10;99.90;;;;;;4188148;28;20483;-60
2020/12/08 05:39:24;;;;;;;19.23;9.50;;;3.10;99.90;;;;;;4187306;28;20499;-60
2020/12/08 05:41:30;;;;;;;16.73;9.10;;;3.10;99.90;;;;;;4186726;28;20470;-60
2020/12/08 05:43:38;;;;;;;21.00;9.50;;;3.10;99.90;;;;;;4188333;28;21001;-60
2020/12/08 05:45:39;;;;;;;18.83;9.10;;;3.10;99.90;;;;;;4188174;28;20470;-59
2020/12/08 05:47:47;;;;;;;17.53;8.83;;;3.10;99.90;;;;;;4187928;28;20471;-60
2020/12/08 05:50:00;;;;;;;18.87;9.50;;;3.10;99.90;;;;;;4190151;28;20483;-59
2020/12/08 05:52:02;;;;;;;19.47;9.47;;;3.10;99.90;;;;;;4187574;28;20487;-60
2020/12/08 05:54:04;;;;;;;16.97;8.63;;;3.10;99.90;;;;;;4186784;28;20474;-60
2020/12/08 05:56:07;;;;;;;21.33;9.97;;;3.10;99.90;;;;;;4188021;28;20487;-60
2020/12/08 05:58:10;;;;;;;18.23;8.73;;;3.00;99.90;;;;;;4188944;28;20507;-60
2020/12/08 06:00:23;;;;;;;18.80;9.30;;;3.00;99.90;;;;;;4188823;28;20473;-60
2020/12/08 06:02:28;;;;;;;18.73;8.83;;;3.00;99.90;;;;;;4187672;28;20586;-60
2020/12/08 06:04:39;;;;;;;20.33;9.83;;;3.00;99.90;;;;;;4191250;28;20543;-57
2020/12/08 06:06:51;;;;;;;19.33;9.83;;;3.00;99.90;;;;;;4189956;28;20473;-57
2020/12/08 06:08:53;;;;;;;20.23;9.50;;;3.00;99.90;;;;;;4189138;28;20484;-57
2020/12/08 06:10:57;;;;;;;18.20;8.60;;;3.00;99.90;;;;;;4190868;28;20757;-57
2020/12/08 06:12:59;;;;;;;17.17;9.00;;;3.00;99.90;;;;;;4188114;28;20476;-57
2020/12/08 06:15:01;;;;;;;19.70;9.47;;;3.00;99.90;;;;;;4189361;28;21113;-57
2020/12/08 06:17:05;;;;;;;18.27;9.20;;;3.00;99.90;;;;;;4189308;28;20489;-57
2020/12/08 06:19:06;;;;;;;17.67;8.63;;;3.00;99.90;;;;;;4188994;28;20509;-58
2020/12/08 06:21:18;;;;;;;19.13;9.30;;;3.00;99.90;;;;;;4187978;28;20593;-58
2020/12/08 06:23:19;;;;;;;17.50;8.77;;;3.10;99.90;;;;;;4187763;28;20473;-57
2020/12/08 06:25:21;;;;;;;18.50;8.63;;;3.10;99.90;;;;;;4188520;28;20953;-58
2020/12/08 06:27:24;;;;;;;18.83;9.20;;;3.10;99.90;;;;;;4189683;28;20824;-58
2020/12/08 06:29:25;;;;;;;18.30;8.87;;;3.10;99.90;;;;;;4188650;28;20476;-58
2020/12/08 06:31:27;;;;;;;17.00;8.83;;;3.00;99.90;;;;;;4187089;28;21374;-59
2020/12/08 06:33:29;;;;;;;18.10;8.80;;;3.00;99.90;;;;;;4189076;28;21081;-58
2020/12/08 06:35:34;;;;;;;16.83;8.40;;;3.00;99.90;;;;;;4189036;28;20495;-59
2020/12/08 06:37:37;;;;;;;16.00;8.40;;;3.00;99.90;;;;;;4189800;28;20475;-58
2020/12/08 06:39:38;;;;;;;13.73;7.23;;;3.00;99.90;;;;;;4188440;28;21072;-57
2020/12/08 06:41:41;;;;;;;14.80;7.83;;;3.00;99.90;;;;;;4190799;28;20931;-57
2020/12/08 06:43:44;;;;;;;16.73;8.07;;;2.90;99.90;;;;;;4190770;28;20555;-57
2020/12/08 06:45:46;;;;;;;16.13;8.20;;;3.00;99.90;;;;;;4191878;28;20470;-58
2020/12/08 06:47:49;;;;;;;16.13;7.67;;;3.00;99.90;;;;;;4191366;28;22366;-57
2020/12/08 06:49:50;;;;;;;15.97;8.07;;;3.00;99.90;;;;;;4192530;28;20974;-57
2020/12/08 06:51:56;;;;;;;20.40;8.63;;;3.00;99.90;;;;;;4192412;28;20475;-57
2020/12/08 06:53:57;;;;;;;17.40;8.37;;;3.00;99.90;;;;;;4191393;28;20475;-57
2020/12/08 06:55:59;;;;;;;15.67;7.53;;;3.00;99.90;;;;;;4192945;28;20991;-57
2020/12/08 06:58:04;;;;;;;15.40;7.37;;;3.00;99.90;;;;;;4193339;28;20501;-57
2020/12/08 07:00:08;;;;;;;15.07;7.83;;;3.00;99.90;;;;;;4192582;28;20470;-58
2020/12/08 07:02:11;;;;;;;13.83;7.80;;;3.00;99.90;;;;;;4192740;28;20473;-58
2020/12/08 07:04:12;;;;;;;16.67;8.10;;;3.00;99.90;;;;;;4190218;28;20467;-57
2020/12/08 07:06:14;;;;;;;16.47;8.43;;;3.00;99.90;;;;;;4192649;28;20941;-57
2020/12/08 07:08:16;;;;;;;17.03;8.07;;;2.90;99.90;;;;;;4191268;28;22609;-57
2020/12/08 07:10:19;;;;;;;16.53;8.57;;;2.90;99.90;;;;;;4192930;28;20470;-57
2020/12/08 07:12:21;;;;;;;17.03;8.13;;;2.90;99.90;;;;;;4190570;28;20939;-57
2020/12/08 07:14:28;;;;;;;17.03;8.30;;;2.90;99.90;;;;;;4191673;28;20556;-57
2020/12/08 07:16:31;;;;;;;17.20;7.90;;;2.90;99.90;;;;;;4192301;28;20482;-57
2020/12/08 07:18:34;;;;;;;16.40;7.87;;;2.90;99.90;;;;;;4192102;28;20873;-57
2020/12/08 07:20:36;;;;;;;15.30;8.03;;;2.90;99.90;;;;;;4190689;28;20467;-57
2020/12/08 07:22:43;;;;;;;17.07;7.73;;;2.90;99.90;;;;;;4189346;28;20474;-56
2020/12/08 07:24:44;;;;;;;14.57;7.40;;;2.90;99.90;;;;;;4190207;28;21152;-56
2020/12/08 07:26:46;;;;;;;17.20;8.98;;;2.90;99.90;;;;;;4188371;28;21965;-57
2020/12/08 07:28:48;;;;;;;16.00;9.43;;;2.90;99.90;;;;;;4189004;28;20473;-56
2020/12/08 07:30:50;;;;;;;15.40;8.33;;;3.00;99.90;;;;;;4193543;28;20323;-57
2020/12/08 07:32:53;;;;;;;15.10;8.03;;;3.00;99.90;;;;;;4191861;28;20473;-57
2020/12/08 07:34:55;;;;;;;18.07;8.20;;;3.00;99.90;;;;;;4190860;28;20556;-57
2020/12/08 07:36:56;;;;;;;16.93;8.43;;;3.00;99.90;;;;;;4192798;28;20483;-57
2020/12/08 07:39:00;;;;;;;15.63;7.83;;;3.00;99.90;;;;;;4195771;28;20498;-57
2020/12/08 07:41:01;;;;;;;15.40;7.83;;;3.00;99.90;;;;;;4192985;28;20472;-57
2020/12/08 07:43:03;;;;;;;15.53;8.30;;;3.00;99.90;;;;;;4188534;28;20476;-57
2020/12/08 07:45:08;;;;;;;15.07;7.30;;;3.00;99.90;;;;;;4189622;28;20530;-57
2020/12/08 07:47:12;;;;;;;16.73;8.20;;;3.00;99.90;;;;;;4188588;28;20504;-56
2020/12/08 07:49:14;;;;;;;16.27;7.80;;;3.00;99.90;;;;;;4188440;28;20466;-56
2020/12/08 07:51:16;;;;;;;15.30;8.00;;;3.10;99.90;;;;;;4190158;28;20474;-56
2020/12/08 07:53:18;;;;;;;13.77;7.47;;;3.10;99.90;;;;;;4187816;28;20489;-56
2020/12/08 07:55:20;;;;;;;14.73;7.63;;;3.10;99.90;;;;;;4188826;28;20477;-56
2020/12/08 07:57:21;;;;;;;14.63;7.27;;;3.10;99.90;;;;;;4190759;28;20543;-57
2020/12/08 07:59:22;;;;;;;15.37;7.93;;;3.10;99.90;;;;;;4194619;28;20470;-56
2020/12/08 08:01:24;;;;;;;13.57;7.57;;;3.10;99.90;;;;;;4193326;28;20486;-57
2020/12/08 08:03:26;;;;;;;15.13;8.50;;;3.20;99.90;;;;;;4192032;28;20471;-56
2020/12/08 08:05:28;;;;;;;16.10;7.70;;;3.20;99.90;;;;;;4192791;28;20462;-56
2020/12/08 08:07:29;;;;;;;17.52;8.85;;;3.20;99.90;;;;;;4192580;28;20450;-57
2020/12/08 08:09:32;;;;;;;17.33;8.57;;;3.20;99.90;;;;;;4194402;28;20775;-57
2020/12/08 08:11:34;;;;;;;16.35;9.38;;;3.20;99.90;;;;;;4191082;28;20450;-56
2020/12/08 08:13:35;;;;;;;16.33;8.53;;;3.30;99.90;;;;;;4191518;28;21880;-56
2020/12/08 08:15:37;;;;;;;13.97;7.47;;;3.30;99.90;;;;;;4192427;28;20485;-57
2020/12/08 08:17:38;;;;;;;13.93;7.97;;;3.30;99.90;;;;;;4190003;28;20962;-57
2020/12/08 08:19:40;;;;;;;15.60;8.00;;;3.30;99.90;;;;;;4192209;28;20217;-57
2020/12/08 08:21:45;;;;;;;15.97;7.97;;;3.30;99.90;;;;;;4189939;28;20543;-57
2020/12/08 08:23:47;;;;;;;15.63;7.73;;;3.30;99.90;;;;;;4190178;28;20535;-57
2020/12/08 08:25:49;;;;;;;16.23;8.35;;;3.30;99.90;;;;;;4188544;28;20496;-58
2020/12/08 08:27:51;;;;;;;13.90;7.70;;;3.30;99.90;;;;;;4190790;28;20225;-56
2020/12/08 08:29:52;;;;;;;12.90;7.17;;;3.30;99.90;;;;;;4189864;28;20472;-56
2020/12/08 08:31:54;;;;;;;13.90;7.27;;;3.30;99.90;;;;;;4188789;28;20470;-56
2020/12/08 08:33:56;;;;;;;13.87;7.00;;;3.40;99.90;;;;;;4187806;28;20472;-56
2020/12/08 08:35:58;;;;;;;15.33;7.77;;;3.40;99.90;;;;;;4187838;28;20491;-56
2020/12/08 08:38:00;;;;;;;14.93;8.60;;;3.50;99.90;;;;;;4188064;28;20474;-57
2020/12/08 08:40:01;;;;;;;14.37;7.47;;;3.50;99.90;;;;;;4187947;28;20210;-60
2020/12/08 08:42:06;;;;;;;11.47;6.30;;;3.50;99.90;;;;;;4191327;28;20481;-56
2020/12/08 08:44:07;;;;;;;12.95;7.38;;;3.60;99.90;;;;;;4193162;28;20466;-57
2020/12/08 08:46:11;;;;;;;13.40;8.35;;;3.60;99.90;;;;;;4189156;28;20488;-57
2020/12/08 08:48:13;;;;;;;11.93;7.20;;;3.70;99.90;;;;;;4191763;28;20213;-56
2020/12/08 08:50:14;;;;;;;13.57;6.87;;;3.80;99.90;;;;;;4190953;28;20474;-57
2020/12/08 08:52:15;;;;;;;14.98;8.07;;;4.00;99.90;;;;;;4186912;28;20458;-62
2020/12/08 08:54:19;;;;;;;12.23;7.27;;;4.10;99.90;;;;;;4187173;28;20225;-57
2020/12/08 08:56:20;;;;;;;13.83;7.33;;;4.20;99.90;;;;;;4190101;28;20481;-57
2020/12/08 08:58:22;;;;;;;14.13;7.00;;;4.30;99.90;;;;;;4192150;28;21387;-57
2020/12/08 09:00:24;;;;;;;13.03;7.33;;;4.30;99.90;;;;;;4188018;28;20487;-62
2020/12/08 09:02:25;;;;;;;14.73;7.40;;;4.40;99.90;;;;;;4189309;28;20481;-56
2020/12/08 09:04:26;;;;;;;16.90;8.80;;;4.40;99.90;;;;;;4190141;28;20483;-58
2020/12/08 09:06:28;;;;;;;14.13;7.63;;;4.40;99.90;;;;;;4191144;28;20560;-58
2020/12/08 09:08:29;;;;;;;15.00;8.23;;;4.30;99.90;;;;;;4190426;28;20567;-57
2020/12/08 09:10:32;;;;;;;16.27;9.80;;;4.30;99.90;;;;;;4189796;28;20494;-57
2020/12/08 09:12:39;;;;;;;15.17;8.00;;;4.30;99.90;;;;;;4189947;28;20213;-57
2020/12/08 09:14:40;;;;;;;14.03;7.57;;;4.20;99.90;;;;;;4186013;28;20504;-58
2020/12/08 09:16:43;;;;;;;17.00;8.30;;;4.10;99.90;;;;;;4186691;28;21013;-58
2020/12/08 09:18:44;;;;;;;15.77;8.17;;;4.10;99.90;;;;;;4188183;28;20525;-58
2020/12/08 09:20:46;;;;;;;14.13;7.40;;;4.10;99.90;;;;;;4188006;28;20481;-58
2020/12/08 09:22:47;;;;;;;15.23;7.90;;;4.10;99.90;;;;;;4185975;28;20483;-63
2020/12/08 09:24:49;;;;;;;14.53;8.47;;;4.20;99.90;;;;;;4189005;28;20511;-61
2020/12/08 09:26:51;;;;;;;14.50;8.30;;;4.30;99.90;;;;;;4191443;28;20468;-58
2020/12/08 09:28:53;;;;;;;16.25;9.05;;;4.50;99.90;;;;;;4190539;28;20457;-61
2020/12/08 09:30:54;;;;;;;15.97;8.70;;;4.60;99.90;;;;;;4190861;28;20424;-62
2020/12/08 09:32:55;;;;;;;14.43;8.10;;;4.80;99.90;;;;;;4189288;28;20482;-56
2020/12/08 09:34:57;;;;;;;17.30;9.17;;;4.90;99.90;;;;;;4190977;28;20475;-57
2020/12/08 09:36:58;;;;;;;14.47;8.20;;;5.00;99.90;;;;;;4188881;28;20493;-57
2020/12/08 09:39:00;;;;;;;13.03;7.03;;;5.10;99.90;;;;;;4190218;28;20474;-57
2020/12/08 09:41:01;;;;;;;13.00;7.30;;;5.30;99.90;;;;;;4190730;28;20460;-57
2020/12/08 09:43:04;;;;;;;14.43;7.70;;;5.50;99.90;;;;;;4191085;28;20459;-58
2020/12/08 09:45:06;;;;;;;15.45;9.27;;;5.60;99.90;;;;;;4187790;28;20451;-58
2020/12/08 09:47:08;;;;;;;13.43;7.77;;;5.80;99.90;;;;;;4188399;28;20211;-58
2020/12/08 09:49:11;;;;;;;13.40;7.83;;;5.90;99.90;;;;;;4190842;28;20482;-59
2020/12/08 09:51:12;;;;;;;14.17;7.87;;;5.90;99.90;;;;;;4187127;28;20529;-60
2020/12/08 09:53:15;;;;;;;12.93;7.53;;;5.90;99.90;;;;;;4185779;28;20472;-57
2020/12/08 09:55:17;;;;;;;13.37;7.37;;;5.90;99.90;;;;;;4187716;28;20991;-59
2020/12/08 09:57:18;;;;;;;11.53;6.70;;;5.80;99.90;;;;;;4186047;28;20500;-56
2020/12/08 09:59:20;;;;;;;10.10;6.20;;;5.70;99.90;;;;;;4186786;28;20475;-56
2020/12/08 10:01:25;;;;;;;8.07;5.27;;;5.60;99.90;;;;;;4186014;28;20979;-57
2020/12/08 10:03:27;;;;;;;9.82;6.78;;;5.50;99.90;;;;;;4183738;28;20456;-57
2020/12/08 10:05:28;;;;;;;9.53;6.30;;;5.50;99.90;;;;;;4186516;28;20224;-63
2020/12/08 10:07:29;;;;;;;9.73;5.83;;;5.30;99.70;;;;;;4189029;28;20487;-57
2020/12/08 10:09:31;;;;;;;10.20;6.00;;;5.20;99.90;;;;;;4193944;28;20476;-58
2020/12/08 10:11:32;;;;;;;9.20;5.23;;;5.10;99.90;;;;;;4188177;28;20477;-57
2020/12/08 10:13:33;;;;;;;9.48;5.97;;;5.10;99.90;;;;;;4187030;28;20448;-57
2020/12/08 10:15:36;;;;;;;9.63;6.10;;;5.20;99.90;;;;;;4190975;28;20218;-58
2020/12/08 10:17:37;;;;;;;10.60;6.03;;;5.40;99.90;;;;;;4190709;28;21416;-57
2020/12/08 10:19:39;;;;;;;12.97;6.10;;;5.60;99.90;;;;;;4191875;28;20569;-59
2020/12/08 10:21:41;;;;;;;10.90;5.40;;;5.80;99.70;;;;;;4191530;28;20514;-57
2020/12/08 10:23:42;;;;;;;8.73;5.40;;;5.80;99.20;;;;;;4190347;28;20470;-58
2020/12/08 10:25:43;;;;;;;9.50;5.43;;;5.80;99.10;;;;;;4193748;28;20474;-56
2020/12/08 10:27:46;;;;;;;10.63;7.07;;;5.80;98.70;;;;;;4191475;28;20453;-57
2020/12/08 10:29:47;;;;;;;9.40;5.83;;;5.80;98.50;;;;;;4192827;28;20665;-56
2020/12/08 10:31:51;;;;;;;10.00;6.07;;;5.80;98.70;;;;;;4194565;28;20465;-57
2020/12/08 10:33:52;;;;;;;10.53;5.90;;;5.70;98.50;;;;;;4193727;28;20467;-56